Time;durP1;ratioP1;P1;durP2;ratioP2;P2;SDS_P1;SDS_P2;PMS_P1;PMS_P2;Temp;Humidity;BMP_temperature;BMP_pressure;BME280_temperature;BME280_humidity;BME280_pressure;Samples;Min_cycle;Max_cycle;Signal;HPM_P1;HPM_P2
2024/02/19 00:00:47;;;;;;;49.90;46.80;;;;;;;;;;4987965;28;20453;-76
2024/02/19 00:03:14;;;;;;;47.60;44.80;;;;;;;;;;4991486;28;20544;-77
2024/02/19 00:05:42;;;;;;;47.53;44.63;;;;;;;;;;4991773;28;20493;-76
2024/02/19 00:08:09;;;;;;;45.10;42.40;;;;;;;;;;4990658;28;20975;-77
2024/02/19 00:10:36;;;;;;;47.20;44.40;;;;;;;;;;4991471;28;20445;-77
2024/02/19 00:13:03;;;;;;;45.77;43.07;;;;;;;;;;4991411;28;20420;-77
2024/02/19 00:15:31;;;;;;;48.80;45.93;;;;;;;;;;4991647;28;20540;-77
2024/02/19 00:17:59;;;;;;;48.77;45.87;;;;;;;;;;4990733;28;20470;-76
2024/02/19 00:20:26;;;;;;;47.30;44.50;;;;;;;;;;4991303;28;20461;-77
2024/02/19 00:22:53;;;;;;;48.10;45.20;;;;;;;;;;4990993;28;20535;-76
2024/02/19 00:25:20;;;;;;;49.70;46.67;;;;;;;;;;4991269;28;20507;-77
2024/02/19 00:27:47;;;;;;;51.20;48.20;;;;;;;;;;4986460;28;20530;-77
2024/02/19 00:30:16;;;;;;;50.47;47.57;;;;;;;;;;4971690;28;20446;-77
2024/02/19 00:32:43;;;;;;;52.63;49.53;;;;;;;;;;4971456;28;21237;-77
2024/02/19 00:35:11;;;;;;;52.30;49.30;;;;;;;;;;4971816;28;20453;-77
2024/02/19 00:37:38;;;;;;;57.47;54.27;;;;;;;;;;4971105;28;20500;-79
2024/02/19 00:40:06;;;;;;;60.13;56.83;;;;;;;;;;4971570;28;20552;-77
2024/02/19 00:42:33;;;;;;;57.30;54.00;;;;;;;;;;4971624;28;20662;-76
2024/02/19 00:44:59;;;;;;;60.90;57.50;;;;;;;;;;4971965;28;20450;-76
2024/02/19 00:47:27;;;;;;;60.23;56.93;;;;;;;;;;4971083;28;20449;-77
2024/02/19 00:49:53;;;;;;;60.60;57.20;;;;;;;;;;4971502;28;20521;-76
2024/02/19 00:52:22;;;;;;;60.70;57.40;;;;;;;;;;4984891;28;20501;-76
2024/02/19 00:54:49;;;;;;;59.10;55.80;;;;;;;;;;4991103;28;20507;-76
2024/02/19 00:57:16;;;;;;;60.97;57.70;;;;;;;;;;4990137;28;20449;-77
2024/02/19 00:59:43;;;;;;;59.20;55.90;;;;;;;;;;4990663;28;20501;-77
2024/02/19 01:02:10;;;;;;;59.93;56.63;;;;;;;;;;4991072;28;20441;-77
2024/02/19 01:04:37;;;;;;;57.70;54.50;;;;;;;;;;4990639;28;20453;-77
2024/02/19 01:07:04;;;;;;;61.17;57.57;;;;;;;;;;4990177;28;20497;-77
2024/02/19 01:09:32;;;;;;;58.27;55.07;;;;;;;;;;4990461;28;20465;-77
2024/02/19 01:11:59;;;;;;;59.57;56.30;;;;;;;;;;4990855;28;20461;-78
2024/02/19 01:14:26;;;;;;;59.13;55.93;;;;;;;;;;4991002;28;20461;-77
2024/02/19 01:16:53;;;;;;;56.10;53.10;;;;;;;;;;4990211;28;20461;-76
2024/02/19 01:19:20;;;;;;;60.33;57.13;;;;;;;;;;4990608;28;20493;-77
2024/02/19 01:21:50;;;;;;;57.87;54.80;;;;;;;;;;4990549;28;20454;-77
2024/02/19 01:24:17;;;;;;;58.50;55.40;;;;;;;;;;4990810;28;20489;-77
2024/02/19 01:26:46;;;;;;;58.73;55.57;;;;;;;;;;4990205;28;20511;-77
2024/02/19 01:29:14;;;;;;;60.97;57.70;;;;;;;;;;4990469;28;20465;-76
2024/02/19 01:31:41;;;;;;;58.53;55.43;;;;;;;;;;4990600;28;20548;-77
2024/02/19 01:34:08;;;;;;;57.80;54.70;;;;;;;;;;4990037;28;20454;-77
2024/02/19 01:36:35;;;;;;;60.33;57.17;;;;;;;;;;4989879;28;20453;-78
2024/02/19 01:39:02;;;;;;;65.13;61.93;;;;;;;;;;4990310;28;20547;-77
2024/02/19 01:41:29;;;;;;;61.17;57.97;;;;;;;;;;4990136;28;20457;-77
2024/02/19 01:43:58;;;;;;;59.07;55.97;;;;;;;;;;4990337;28;20460;-75
2024/02/19 01:46:25;;;;;;;60.63;57.40;;;;;;;;;;4989595;28;20461;-76
2024/02/19 01:48:52;;;;;;;57.43;54.30;;;;;;;;;;4980767;28;20474;-76
2024/02/19 01:51:20;;;;;;;59.50;56.13;;;;;;;;;;4970894;28;20454;-77
2024/02/19 01:53:47;;;;;;;60.30;56.37;;;;;;;;;;4970850;28;20482;-77
2024/02/19 01:56:14;;;;;;;58.90;55.80;;;;;;;;;;4970079;28;20450;-75
2024/02/19 01:58:41;;;;;;;61.87;58.77;;;;;;;;;;4970493;28;20560;-75
2024/02/19 02:01:10;;;;;;;57.73;54.83;;;;;;;;;;4971020;28;21059;-76
2024/02/19 02:03:37;;;;;;;52.43;49.43;;;;;;;;;;4973728;28;20446;-77
2024/02/19 02:06:04;;;;;;;53.20;50.50;;;;;;;;;;4973635;28;20477;-76
2024/02/19 02:08:31;;;;;;;55.07;52.07;;;;;;;;;;4974462;28;20474;-76
2024/02/19 02:10:59;;;;;;;54.13;51.33;;;;;;;;;;4974685;28;20420;-76
2024/02/19 02:13:26;;;;;;;56.03;52.23;;;;;;;;;;4974455;28;20453;-76
2024/02/19 02:15:53;;;;;;;60.90;57.67;;;;;;;;;;4974224;28;20497;-77
2024/02/19 02:18:21;;;;;;;57.63;54.00;;;;;;;;;;4973298;28;20478;-77
2024/02/19 02:20:48;;;;;;;62.40;59.10;;;;;;;;;;4974073;28;20490;-76
2024/02/19 02:23:16;;;;;;;63.03;59.67;;;;;;;;;;4974358;28;20438;-76
2024/02/19 02:25:43;;;;;;;59.37;56.37;;;;;;;;;;4974058;28;20454;-76
2024/02/19 02:28:12;;;;;;;63.47;60.27;;;;;;;;;;4973260;28;20581;-76
2024/02/19 02:30:39;;;;;;;63.97;60.57;;;;;;;;;;4974144;28;20942;-76
2024/02/19 02:33:06;;;;;;;59.67;56.50;;;;;;;;;;4974102;28;20798;-77
2024/02/19 02:35:33;;;;;;;59.57;56.57;;;;;;;;;;4973725;28;20729;-76
2024/02/19 02:38:01;;;;;;;59.23;56.23;;;;;;;;;;4973123;28;20470;-78
2024/02/19 02:40:28;;;;;;;60.03;56.83;;;;;;;;;;4973744;28;20515;-76
2024/02/19 02:42:55;;;;;;;63.60;60.10;;;;;;;;;;4973808;28;20413;-76
2024/02/19 02:45:24;;;;;;;65.93;62.27;;;;;;;;;;4973869;28;20458;-76
2024/02/19 02:47:51;;;;;;;59.27;56.17;;;;;;;;;;4973168;28;20474;-77
2024/02/19 02:50:18;;;;;;;63.33;59.83;;;;;;;;;;4973570;28;20454;-76
2024/02/19 02:55:49;;;;;;;61.88;58.88;;;;;;;;;;4977661;28;20440;-76
2024/02/19 02:58:16;;;;;;;66.43;63.27;;;;;;;;;;4980069;28;20228;-76
2024/02/19 03:00:44;;;;;;;59.37;56.33;;;;;;;;;;4992179;28;20931;-76
2024/02/19 03:03:11;;;;;;;60.93;57.97;;;;;;;;;;4992829;28;20445;-76
2024/02/19 03:05:38;;;;;;;58.50;55.60;;;;;;;;;;4992120;28;20449;-77
2024/02/19 03:08:06;;;;;;;62.03;59.03;;;;;;;;;;4991735;28;20832;-76
2024/02/19 03:10:34;;;;;;;64.73;61.63;;;;;;;;;;4993027;28;20450;-77
2024/02/19 03:13:01;;;;;;;67.30;64.00;;;;;;;;;;5005486;28;20486;-76
2024/02/19 03:15:28;;;;;;;67.47;64.23;;;;;;;;;;5011612;28;20448;-78
2024/02/19 03:17:56;;;;;;;69.53;65.73;;;;;;;;;;5011790;28;20472;-77
2024/02/19 03:20:23;;;;;;;70.17;66.77;;;;;;;;;;5012156;28;20484;-76
2024/02/19 03:22:50;;;;;;;70.13;66.70;;;;;;;;;;5012400;28;21001;-76
2024/02/19 03:25:18;;;;;;;65.00;61.80;;;;;;;;;;5012045;28;20451;-77
2024/02/19 03:27:45;;;;;;;67.13;63.73;;;;;;;;;;5011138;28;20521;-77
2024/02/19 03:30:13;;;;;;;64.60;60.90;;;;;;;;;;5010583;28;20539;-77
2024/02/19 03:32:40;;;;;;;68.33;64.73;;;;;;;;;;4975824;28;21014;-76
2024/02/19 03:35:09;;;;;;;66.43;62.97;;;;;;;;;;4992799;28;20865;-77
2024/02/19 03:37:36;;;;;;;68.13;64.53;;;;;;;;;;4989535;28;20498;-76
2024/02/19 03:40:06;;;;;;;74.63;70.93;;;;;;;;;;4976541;28;20490;-77
2024/02/19 03:42:33;;;;;;;72.03;68.20;;;;;;;;;;4972621;28;20513;-77
2024/02/19 03:45:00;;;;;;;75.90;71.90;;;;;;;;;;4972691;28;20468;-77
2024/02/19 03:50:03;;;;;;;77.80;73.33;;;;;;;;;;5353181;23;20841;-76
2024/02/19 03:52:31;;;;;;;74.97;70.63;;;;;;;;;;5004690;28;20860;-76
2024/02/19 03:54:58;;;;;;;72.23;68.13;;;;;;;;;;4990011;28;20436;-77
2024/02/19 03:57:27;;;;;;;73.50;69.50;;;;;;;;;;4989042;28;20462;-76
2024/02/19 03:59:54;;;;;;;77.57;73.00;;;;;;;;;;4989317;28;22892;-78
2024/02/19 04:02:21;;;;;;;80.60;76.17;;;;;;;;;;4960300;28;20508;-76
2024/02/19 04:04:48;;;;;;;75.40;71.33;;;;;;;;;;4972864;28;20458;-77
2024/02/19 04:07:15;;;;;;;76.10;72.20;;;;;;;;;;4984310;28;20519;-77
2024/02/19 04:09:43;;;;;;;80.10;75.40;;;;;;;;;;4991864;28;20511;-76
2024/02/19 04:12:11;;;;;;;79.90;75.73;;;;;;;;;;4988434;28;20428;-77
2024/02/19 04:14:40;;;;;;;76.37;72.30;;;;;;;;;;4981849;28;20453;-76
2024/02/19 04:17:07;;;;;;;75.80;71.60;;;;;;;;;;4990882;28;20460;-76
2024/02/19 04:19:34;;;;;;;82.47;78.00;;;;;;;;;;4974859;28;20905;-76
2024/02/19 04:22:01;;;;;;;80.03;75.97;;;;;;;;;;4973935;28;20870;-77
2024/02/19 04:24:28;;;;;;;77.13;73.13;;;;;;;;;;4987385;28;20524;-77
2024/02/19 04:26:57;;;;;;;77.50;73.37;;;;;;;;;;4968017;28;20454;-76
2024/02/19 04:29:24;;;;;;;77.10;72.90;;;;;;;;;;4976823;28;21048;-77
2024/02/19 04:31:51;;;;;;;82.07;77.33;;;;;;;;;;4972300;28;20447;-76
2024/02/19 04:34:18;;;;;;;80.93;76.33;;;;;;;;;;4971944;28;20446;-77
2024/02/19 04:36:45;;;;;;;80.33;76.00;;;;;;;;;;4971185;28;20454;-77
2024/02/19 04:39:12;;;;;;;78.20;73.93;;;;;;;;;;5473496;23;20556;-76
2024/02/19 04:41:39;;;;;;;80.93;76.23;;;;;;;;;;4970762;28;20453;-77
2024/02/19 04:44:07;;;;;;;89.53;83.73;;;;;;;;;;4971266;28;21289;-76
2024/02/19 04:46:36;;;;;;;88.00;83.40;;;;;;;;;;4970612;28;20903;-77
2024/02/19 04:49:03;;;;;;;100.87;93.03;;;;;;;;;;4970918;28;20474;-76
2024/02/19 04:51:30;;;;;;;107.90;98.77;;;;;;;;;;4971477;28;20472;-76
2024/02/19 04:53:57;;;;;;;134.33;119.63;;;;;;;;;;4971335;28;20421;-76
2024/02/19 04:56:25;;;;;;;106.87;97.30;;;;;;;;;;4970934;28;20525;-77
2024/02/19 04:58:52;;;;;;;86.63;81.83;;;;;;;;;;4971675;28;20444;-77
2024/02/19 05:01:20;;;;;;;84.93;80.73;;;;;;;;;;4981226;28;20492;-76
2024/02/19 05:03:48;;;;;;;100.47;93.80;;;;;;;;;;4990827;28;20449;-76
2024/02/19 05:06:15;;;;;;;81.00;76.70;;;;;;;;;;4990401;28;20881;-77
2024/02/19 05:08:42;;;;;;;121.07;111.97;;;;;;;;;;5003263;28;20230;-77
2024/02/19 05:11:09;;;;;;;147.90;134.60;;;;;;;;;;5004438;28;20433;-77
2024/02/19 05:13:37;;;;;;;121.20;112.23;;;;;;;;;;4971466;28;20429;-77
2024/02/19 05:16:06;;;;;;;108.72;101.25;;;;;;;;;;4970673;28;20461;-78
2024/02/19 05:18:35;;;;;;;82.80;78.20;;;;;;;;;;4990605;28;20230;-78
2024/02/19 05:21:02;;;;;;;93.70;88.40;;;;;;;;;;4994647;28;20526;-77
2024/02/19 05:23:29;;;;;;;77.27;72.73;;;;;;;;;;5010310;28;20452;-77
2024/02/19 05:25:56;;;;;;;81.57;77.07;;;;;;;;;;5010347;28;20441;-78
2024/02/19 05:28:23;;;;;;;75.63;71.30;;;;;;;;;;5009908;28;20621;-77
2024/02/19 05:30:50;;;;;;;72.80;68.77;;;;;;;;;;5010181;28;20449;-77
2024/02/19 05:33:18;;;;;;;74.37;70.40;;;;;;;;;;5010148;28;20504;-77
2024/02/19 05:35:46;;;;;;;71.77;67.77;;;;;;;;;;5010384;28;20484;-77
2024/02/19 05:38:13;;;;;;;72.77;68.77;;;;;;;;;;5007420;28;20505;-76
2024/02/19 05:40:40;;;;;;;75.18;70.97;;;;;;;;;;4993913;28;20896;-76
2024/02/19 05:43:07;;;;;;;72.43;67.83;;;;;;;;;;4994362;28;20671;-78
2024/02/19 05:45:35;;;;;;;74.10;69.50;;;;;;;;;;5013694;28;21006;-76
2024/02/19 05:48:02;;;;;;;67.77;63.80;;;;;;;;;;5013264;28;20533;-77
2024/02/19 05:50:30;;;;;;;67.60;63.90;;;;;;;;;;5013435;28;20795;-77
2024/02/19 05:52:58;;;;;;;70.03;65.83;;;;;;;;;;4993068;28;20461;-76
2024/02/19 05:55:25;;;;;;;68.90;65.18;;;;;;;;;;4987279;28;20508;-76
2024/02/19 05:57:52;;;;;;;67.07;63.40;;;;;;;;;;4997639;28;20233;-77
2024/02/19 06:00:19;;;;;;;68.67;64.97;;;;;;;;;;5013816;28;20533;-78
2024/02/19 06:02:46;;;;;;;75.03;71.13;;;;;;;;;;5014279;28;20889;-78
2024/02/19 06:05:13;;;;;;;73.20;69.33;;;;;;;;;;5013927;28;20860;-76
2024/02/19 06:07:40;;;;;;;70.80;67.10;;;;;;;;;;4989452;28;20533;-77
2024/02/19 06:10:09;;;;;;;74.93;71.03;;;;;;;;;;4975279;28;20501;-77
2024/02/19 06:12:36;;;;;;;71.67;67.70;;;;;;;;;;5011144;28;20684;-77
2024/02/19 06:15:03;;;;;;;75.03;70.83;;;;;;;;;;5013849;28;20435;-77
2024/02/19 06:17:30;;;;;;;77.80;73.80;;;;;;;;;;5013068;28;20485;-76
2024/02/19 06:19:57;;;;;;;73.37;69.30;;;;;;;;;;5013362;28;20457;-76
2024/02/19 06:22:24;;;;;;;77.38;73.38;;;;;;;;;;5013283;28;20506;-76
2024/02/19 06:24:51;;;;;;;78.90;74.87;;;;;;;;;;5001967;28;20198;-77
2024/02/19 06:27:20;;;;;;;75.53;71.53;;;;;;;;;;4993096;28;20461;-77
2024/02/19 06:29:47;;;;;;;78.20;73.63;;;;;;;;;;4993751;28;20480;-76
2024/02/19 06:32:14;;;;;;;76.10;72.00;;;;;;;;;;4994114;28;20484;-77
2024/02/19 06:34:41;;;;;;;78.73;74.63;;;;;;;;;;4993506;28;20476;-76
2024/02/19 06:37:08;;;;;;;85.20;80.80;;;;;;;;;;4992564;28;21268;-77
2024/02/19 06:39:37;;;;;;;80.53;76.03;;;;;;;;;;4985968;28;20875;-76
2024/02/19 06:42:05;;;;;;;81.53;77.13;;;;;;;;;;4991412;28;20566;-77
2024/02/19 06:44:33;;;;;;;81.63;76.83;;;;;;;;;;5002836;28;20437;-76
2024/02/19 06:47:00;;;;;;;80.60;76.00;;;;;;;;;;4973344;28;20461;-77
2024/02/19 06:49:27;;;;;;;80.63;76.43;;;;;;;;;;4973482;28;20517;-77
2024/02/19 06:51:54;;;;;;;81.18;76.78;;;;;;;;;;4973355;28;20935;-77
2024/02/19 06:54:21;;;;;;;76.63;72.53;;;;;;;;;;4973186;28;20211;-77
2024/02/19 06:56:48;;;;;;;80.53;76.13;;;;;;;;;;4972852;28;20870;-78
2024/02/19 06:59:15;;;;;;;78.90;74.20;;;;;;;;;;4973277;28;20880;-76
2024/02/19 07:01:43;;;;;;;79.67;75.47;;;;;;;;;;4987579;28;21168;-78
2024/02/19 07:04:11;;;;;;;80.30;76.00;;;;;;;;;;4992768;28;21001;-77
2024/02/19 07:06:38;;;;;;;78.57;74.17;;;;;;;;;;4992542;28;20494;-77
2024/02/19 07:09:05;;;;;;;78.70;74.13;;;;;;;;;;4992988;28;20539;-76
2024/02/19 07:11:32;;;;;;;74.67;70.10;;;;;;;;;;4993095;28;20449;-77
2024/02/19 07:13:59;;;;;;;79.40;75.10;;;;;;;;;;4993161;28;20516;-77
2024/02/19 07:16:26;;;;;;;81.23;76.70;;;;;;;;;;4992656;28;21022;-77
2024/02/19 07:18:55;;;;;;;76.37;71.67;;;;;;;;;;4992877;28;20480;-77
2024/02/19 07:21:22;;;;;;;79.10;74.90;;;;;;;;;;4992655;28;20485;-77
2024/02/19 07:23:49;;;;;;;79.47;74.73;;;;;;;;;;4992837;28;20453;-77
2024/02/19 07:26:16;;;;;;;86.47;81.97;;;;;;;;;;4992418;28;20428;-77
2024/02/19 07:28:42;;;;;;;87.17;82.27;;;;;;;;;;4992395;28;20230;-76
2024/02/19 07:31:09;;;;;;;84.30;79.63;;;;;;;;;;4992681;28;20485;-77
2024/02/19 07:33:36;;;;;;;81.50;76.90;;;;;;;;;;4992710;28;20322;-76
2024/02/19 07:36:05;;;;;;;85.15;80.45;;;;;;;;;;4992264;28;20453;-77
2024/02/19 07:38:32;;;;;;;77.23;73.13;;;;;;;;;;4992169;28;20226;-75
2024/02/19 07:40:59;;;;;;;86.57;81.67;;;;;;;;;;4992085;28;20969;-76
2024/02/19 07:43:26;;;;;;;81.30;77.00;;;;;;;;;;4992366;28;20836;-76
2024/02/19 07:45:55;;;;;;;78.27;74.03;;;;;;;;;;4992195;28;20789;-77
2024/02/19 07:48:22;;;;;;;80.13;75.73;;;;;;;;;;4992055;28;20486;-77
2024/02/19 07:50:49;;;;;;;77.07;72.87;;;;;;;;;;4992195;28;20491;-77
2024/02/19 07:53:17;;;;;;;77.30;72.73;;;;;;;;;;4992046;28;20449;-78
2024/02/19 07:55:44;;;;;;;76.60;71.80;;;;;;;;;;4991686;28;20523;-78
2024/02/19 07:58:13;;;;;;;75.33;70.87;;;;;;;;;;4991268;28;20469;-77
2024/02/19 08:00:40;;;;;;;73.27;68.87;;;;;;;;;;4991813;28;20496;-78
2024/02/19 08:03:07;;;;;;;72.13;67.85;;;;;;;;;;4977997;28;20462;-77
2024/02/19 08:05:34;;;;;;;74.50;70.17;;;;;;;;;;4985819;28;20662;-78
2024/02/19 08:08:01;;;;;;;78.40;73.70;;;;;;;;;;4975125;28;21326;-77
2024/02/19 08:10:30;;;;;;;74.53;69.43;;;;;;;;;;4972317;28;20443;-77
2024/02/19 08:12:57;;;;;;;77.37;72.80;;;;;;;;;;4975169;28;20462;-77
2024/02/19 08:15:24;;;;;;;73.70;69.50;;;;;;;;;;4990857;28;20500;-78
2024/02/19 08:17:51;;;;;;;75.40;70.40;;;;;;;;;;4998950;28;20532;-76
2024/02/19 08:20:18;;;;;;;79.73;74.33;;;;;;;;;;4979053;28;20432;-77
2024/02/19 08:22:45;;;;;;;79.57;74.10;;;;;;;;;;4985357;28;20465;-76
2024/02/19 08:25:12;;;;;;;80.00;75.00;;;;;;;;;;5007769;28;20473;-78
2024/02/19 08:27:40;;;;;;;85.20;79.00;;;;;;;;;;5009851;28;20452;-76
2024/02/19 08:30:08;;;;;;;78.27;72.80;;;;;;;;;;4993460;28;20457;-77
2024/02/19 08:32:35;;;;;;;81.70;76.03;;;;;;;;;;4980298;28;20503;-78
2024/02/19 08:35:02;;;;;;;80.27;75.17;;;;;;;;;;4971832;28;20439;-78
2024/02/19 08:37:29;;;;;;;79.33;74.13;;;;;;;;;;4971360;28;20432;-77
2024/02/19 08:39:56;;;;;;;76.30;70.77;;;;;;;;;;4971596;28;20834;-78
2024/02/19 08:42:23;;;;;;;81.00;75.10;;;;;;;;;;4971276;28;20918;-78
2024/02/19 08:44:51;;;;;;;75.40;71.30;;;;;;;;;;4971602;28;20446;-77
2024/02/19 08:47:19;;;;;;;72.23;67.60;;;;;;;;;;4971106;28;20497;-77
2024/02/19 08:49:45;;;;;;;73.43;68.33;;;;;;;;;;4972008;28;20469;-76
2024/02/19 08:52:14;;;;;;;73.87;69.10;;;;;;;;;;4972132;28;20451;-76
2024/02/19 08:54:41;;;;;;;75.40;70.20;;;;;;;;;;4978780;28;20568;-77
2024/02/19 08:57:08;;;;;;;68.63;63.50;;;;;;;;;;5012564;28;20444;-76
2024/02/19 08:59:35;;;;;;;72.40;67.80;;;;;;;;;;5013563;28;20468;-86
2024/02/19 09:02:03;;;;;;;69.97;65.37;;;;;;;;;;5016804;28;20519;-76
2024/02/19 09:04:30;;;;;;;71.23;65.93;;;;;;;;;;5014214;28;20962;-80
2024/02/19 09:06:57;;;;;;;73.70;68.90;;;;;;;;;;5015665;28;20456;-81
2024/02/19 09:09:24;;;;;;;72.50;68.20;;;;;;;;;;5015759;28;20578;-78
2024/02/19 09:11:51;;;;;;;75.07;69.27;;;;;;;;;;5013742;28;20921;-77
2024/02/19 09:14:18;;;;;;;71.43;66.57;;;;;;;;;;5017638;28;20456;-80
2024/02/19 09:16:45;;;;;;;72.17;66.60;;;;;;;;;;5020534;28;20453;-82
2024/02/19 09:19:15;;;;;;;72.27;67.53;;;;;;;;;;5020215;28;20503;-79
2024/02/19 09:21:43;;;;;;;76.00;70.70;;;;;;;;;;5017885;28;20476;-79
2024/02/19 09:24:12;;;;;;;69.37;64.60;;;;;;;;;;5014785;28;20452;-78
2024/02/19 09:26:39;;;;;;;74.50;69.73;;;;;;;;;;5017377;28;20456;-80
2024/02/19 09:29:06;;;;;;;72.80;67.47;;;;;;;;;;5018308;28;20461;-80
2024/02/19 09:31:33;;;;;;;69.27;64.90;;;;;;;;;;5011429;28;20472;-75
2024/02/19 09:34:00;;;;;;;72.27;66.37;;;;;;;;;;5009986;28;20488;-73
2024/02/19 09:36:28;;;;;;;76.03;71.00;;;;;;;;;;5009433;28;20451;-74
2024/02/19 09:38:55;;;;;;;72.47;67.03;;;;;;;;;;5009347;28;20488;-74
2024/02/19 09:41:22;;;;;;;76.23;70.73;;;;;;;;;;5009932;28;20488;-75
2024/02/19 09:43:51;;;;;;;75.03;69.77;;;;;;;;;;5010129;28;20444;-74
2024/02/19 09:46:19;;;;;;;77.07;71.30;;;;;;;;;;5009729;28;20460;-74
2024/02/19 09:48:48;;;;;;;69.53;64.33;;;;;;;;;;4998817;28;20456;-74
2024/02/19 09:51:18;;;;;;;76.37;70.37;;;;;;;;;;4990249;28;20949;-73
2024/02/19 09:53:49;;;;;;;80.30;74.90;;;;;;;;;;4990449;28;20459;-74
2024/02/19 09:56:17;;;;;;;76.97;71.73;;;;;;;;;;4989603;28;20832;-75
2024/02/19 09:58:44;;;;;;;78.93;72.93;;;;;;;;;;4990175;28;20525;-74
2024/02/19 10:01:11;;;;;;;81.63;75.43;;;;;;;;;;4989075;28;20517;-73
2024/02/19 10:03:39;;;;;;;73.80;68.80;;;;;;;;;;4990006;28;20919;-74
2024/02/19 10:06:07;;;;;;;75.23;69.90;;;;;;;;;;4989515;28;20566;-74
2024/02/19 10:08:34;;;;;;;73.73;68.40;;;;;;;;;;4979081;28;20568;-74
2024/02/19 10:11:08;;;;;;;73.50;67.73;;;;;;;;;;4990277;28;20471;-74
2024/02/19 10:13:36;;;;;;;67.47;62.97;;;;;;;;;;4978120;28;20889;-74
2024/02/19 10:16:04;;;;;;;75.73;70.53;;;;;;;;;;4970130;28;20469;-76
2024/02/19 10:18:31;;;;;;;77.40;72.23;;;;;;;;;;4970283;28;20914;-74
2024/02/19 10:20:58;;;;;;;75.23;70.30;;;;;;;;;;4970350;28;20506;-74
2024/02/19 10:23:25;;;;;;;75.63;70.00;;;;;;;;;;4971571;28;20548;-74
2024/02/19 10:25:53;;;;;;;77.37;71.70;;;;;;;;;;4980162;28;20481;-79
2024/02/19 10:28:22;;;;;;;83.73;77.60;;;;;;;;;;4980309;28;20493;-79
2024/02/19 10:30:49;;;;;;;77.73;71.97;;;;;;;;;;4980982;28;20541;-81
2024/02/19 10:33:16;;;;;;;77.53;71.63;;;;;;;;;;4981445;28;20811;-81
2024/02/19 10:35:43;;;;;;;78.90;73.03;;;;;;;;;;4982313;28;20450;-82
2024/02/19 10:38:10;;;;;;;71.03;66.53;;;;;;;;;;4982335;28;20472;-84
2024/02/19 10:40:37;;;;;;;91.57;84.23;;;;;;;;;;4985069;28;20461;-81
2024/02/19 10:43:05;;;;;;;82.60;76.50;;;;;;;;;;4987306;28;20489;-83
2024/02/19 10:45:34;;;;;;;83.17;77.27;;;;;;;;;;4987748;28;20529;-75
2024/02/19 10:48:01;;;;;;;75.97;70.53;;;;;;;;;;4972323;28;20462;-75
2024/02/19 10:50:31;;;;;;;88.37;80.10;;;;;;;;;;4973424;28;20576;-76
2024/02/19 10:52:58;;;;;;;117.03;106.50;;;;;;;;;;4973502;28;20942;-75
2024/02/19 10:55:27;;;;;;;72.70;67.90;;;;;;;;;;4974049;28;20469;-76
2024/02/19 10:57:54;;;;;;;69.33;64.73;;;;;;;;;;4988969;28;20489;-75
2024/02/19 11:00:25;;;;;;;74.67;69.47;;;;;;;;;;4983374;28;20432;-75
2024/02/19 11:03:03;;;;;;;68.40;64.30;;;;;;;;;;4973549;28;20466;-75
2024/02/19 11:05:34;;;;;;;71.83;66.43;;;;;;;;;;4973631;28;20442;-75
2024/02/19 11:08:01;;;;;;;68.13;63.97;;;;;;;;;;4972753;28;20452;-75
2024/02/19 11:10:37;;;;;;;68.40;63.00;;;;;;;;;;4973043;28;20497;-75
2024/02/19 11:13:09;;;;;;;73.47;66.97;;;;;;;;;;4973355;28;20401;-76
2024/02/19 11:15:42;;;;;;;67.87;62.40;;;;;;;;;;4973967;28;20461;-75
2024/02/19 11:18:11;;;;;;;67.43;61.93;;;;;;;;;;4972369;28;20447;-76
2024/02/19 11:20:38;;;;;;;73.00;67.47;;;;;;;;;;4990320;28;20442;-82
2024/02/19 11:23:05;;;;;;;69.27;64.47;;;;;;;;;;5001208;28;20524;-81
2024/02/19 11:25:32;;;;;;;76.93;71.50;;;;;;;;;;4981723;28;20462;-75
2024/02/19 11:28:00;;;;;;;75.77;70.00;;;;;;;;;;4981328;28;20474;-75
2024/02/19 11:30:29;;;;;;;67.10;62.37;;;;;;;;;;4973276;28;20453;-75
2024/02/19 11:33:02;;;;;;;60.83;57.17;;;;;;;;;;4972990;28;20455;-75
2024/02/19 11:35:30;;;;;;;61.10;56.63;;;;;;;;;;4972136;28;20443;-76
2024/02/19 11:37:57;;;;;;;65.23;60.27;;;;;;;;;;4979196;28;20515;-76
2024/02/19 11:40:31;;;;;;;62.03;57.70;;;;;;;;;;4992531;28;20936;-75
2024/02/19 11:42:59;;;;;;;61.33;56.57;;;;;;;;;;4977327;28;20488;-76
2024/02/19 11:45:26;;;;;;;56.37;53.37;;;;;;;;;;4991839;28;20922;-75
2024/02/19 11:47:53;;;;;;;55.33;51.73;;;;;;;;;;4991774;28;20923;-75
2024/02/19 11:50:23;;;;;;;59.97;55.97;;;;;;;;;;4989961;28;20520;-76
2024/02/19 11:52:53;;;;;;;54.63;50.43;;;;;;;;;;4982395;28;20507;-75
2024/02/19 11:55:21;;;;;;;55.97;51.53;;;;;;;;;;4976094;28;20458;-74
2024/02/19 11:57:49;;;;;;;50.87;47.37;;;;;;;;;;4985145;28;20849;-76
2024/02/19 12:00:16;;;;;;;55.10;50.40;;;;;;;;;;4987241;28;20511;-75
2024/02/19 12:02:44;;;;;;;48.03;44.43;;;;;;;;;;4985076;28;20489;-75
2024/02/19 12:05:11;;;;;;;47.53;44.20;;;;;;;;;;4982480;28;20466;-74
2024/02/19 12:07:39;;;;;;;51.50;47.43;;;;;;;;;;4971600;28;20484;-74
2024/02/19 12:10:09;;;;;;;52.73;48.60;;;;;;;;;;4972619;28;20533;-75
2024/02/19 12:12:37;;;;;;;51.57;47.37;;;;;;;;;;4971540;28;20786;-74
2024/02/19 12:15:04;;;;;;;50.57;46.63;;;;;;;;;;4972285;28;20943;-75
2024/02/19 12:17:31;;;;;;;54.17;49.03;;;;;;;;;;4979360;28;20460;-74
2024/02/19 12:19:58;;;;;;;42.27;39.43;;;;;;;;;;4974308;28;20458;-74
2024/02/19 12:22:25;;;;;;;45.13;40.83;;;;;;;;;;4974490;28;20494;-74
2024/02/19 12:24:53;;;;;;;51.47;46.77;;;;;;;;;;4986574;28;20440;-75
2024/02/19 12:27:21;;;;;;;49.67;46.20;;;;;;;;;;4971696;28;20541;-74
2024/02/19 12:29:52;;;;;;;51.57;47.47;;;;;;;;;;4972023;28;20450;-74
2024/02/19 12:32:19;;;;;;;50.67;46.37;;;;;;;;;;4971913;28;20509;-74
2024/02/19 12:34:46;;;;;;;50.07;45.57;;;;;;;;;;4972354;28;20806;-75
2024/02/19 12:37:13;;;;;;;44.57;41.27;;;;;;;;;;4974057;28;20512;-74
2024/02/19 12:39:40;;;;;;;52.03;47.30;;;;;;;;;;4979305;28;20486;-75
2024/02/19 12:42:08;;;;;;;49.80;45.30;;;;;;;;;;4981500;28;20580;-77
2024/02/19 12:44:37;;;;;;;52.80;48.40;;;;;;;;;;4978208;28;20826;-74
2024/02/19 12:47:05;;;;;;;47.80;43.97;;;;;;;;;;4972143;28;20693;-74
2024/02/19 12:49:32;;;;;;;51.10;46.77;;;;;;;;;;4971827;28;20490;-75
2024/02/19 12:51:59;;;;;;;55.00;50.10;;;;;;;;;;4981483;28;20461;-74
2024/02/19 12:54:26;;;;;;;52.20;47.87;;;;;;;;;;4984268;28;20895;-75
2024/02/19 12:56:53;;;;;;;49.80;45.97;;;;;;;;;;4976137;28;20454;-75
2024/02/19 12:59:21;;;;;;;53.03;49.13;;;;;;;;;;4982891;28;20477;-73
2024/02/19 13:01:50;;;;;;;51.97;47.67;;;;;;;;;;4991343;28;20523;-75
2024/02/19 13:04:17;;;;;;;50.37;46.63;;;;;;;;;;4978002;28;20532;-74
2024/02/19 13:06:45;;;;;;;43.40;40.40;;;;;;;;;;4986615;28;20466;-74
2024/02/19 13:09:12;;;;;;;50.93;47.33;;;;;;;;;;4988339;28;20455;-75
2024/02/19 13:11:40;;;;;;;47.43;44.03;;;;;;;;;;4973884;28;20436;-74
2024/02/19 13:14:07;;;;;;;47.17;43.87;;;;;;;;;;4973494;28;20513;-76
2024/02/19 13:16:34;;;;;;;47.30;43.20;;;;;;;;;;4978844;28;20449;-75
2024/02/19 13:19:02;;;;;;;48.23;44.47;;;;;;;;;;4980144;28;20457;-74
2024/02/19 13:21:30;;;;;;;49.63;46.50;;;;;;;;;;4972468;28;20517;-75
2024/02/19 13:23:57;;;;;;;51.87;46.67;;;;;;;;;;4983368;28;20493;-75
2024/02/19 13:26:24;;;;;;;45.27;42.47;;;;;;;;;;4990261;28;20504;-75
2024/02/19 13:28:51;;;;;;;47.63;43.73;;;;;;;;;;4990276;28;20506;-75
2024/02/19 13:31:18;;;;;;;43.10;40.13;;;;;;;;;;4990626;28;20457;-75
2024/02/19 13:33:45;;;;;;;40.83;37.93;;;;;;;;;;4990484;28;20978;-74
2024/02/19 13:36:13;;;;;;;41.43;38.83;;;;;;;;;;4987019;28;20454;-75
2024/02/19 13:38:40;;;;;;;40.47;37.30;;;;;;;;;;4970611;28;20505;-75
2024/02/19 13:41:09;;;;;;;41.43;38.60;;;;;;;;;;4971060;28;20944;-75
2024/02/19 13:43:36;;;;;;;40.03;36.90;;;;;;;;;;4971713;28;20461;-77
2024/02/19 13:46:06;;;;;;;40.30;37.03;;;;;;;;;;4975633;28;20493;-78
2024/02/19 13:48:33;;;;;;;36.63;33.40;;;;;;;;;;4980686;28;20481;-77
2024/02/19 13:51:01;;;;;;;34.33;31.50;;;;;;;;;;4972010;28;20464;-77
2024/02/19 13:53:30;;;;;;;34.67;31.50;;;;;;;;;;4971498;28;20469;-77
2024/02/19 13:55:58;;;;;;;31.50;29.13;;;;;;;;;;4971103;28;20493;-77
2024/02/19 13:58:26;;;;;;;31.13;29.07;;;;;;;;;;4971740;28;20474;-76
2024/02/19 14:00:54;;;;;;;27.80;25.80;;;;;;;;;;4975380;28;20552;-76
2024/02/19 14:03:21;;;;;;;30.13;27.07;;;;;;;;;;4975068;28;20485;-77
2024/02/19 14:05:48;;;;;;;31.13;28.90;;;;;;;;;;4975959;28;20465;-82
2024/02/19 14:08:16;;;;;;;30.10;28.00;;;;;;;;;;4996431;28;20465;-84
2024/02/19 14:10:46;;;;;;;30.53;28.37;;;;;;;;;;5001230;28;20420;-83
2024/02/19 14:13:15;;;;;;;28.77;26.30;;;;;;;;;;5000827;28;20426;-83
2024/02/19 14:15:42;;;;;;;28.97;26.57;;;;;;;;;;5001387;28;20441;-84
2024/02/19 14:18:09;;;;;;;29.97;27.40;;;;;;;;;;5000533;28;20462;-84
2024/02/19 14:20:36;;;;;;;29.33;27.07;;;;;;;;;;5000794;28;20416;-85
2024/02/19 14:23:03;;;;;;;27.43;24.67;;;;;;;;;;5000355;28;20973;-82